sensor_id;sensor_type;location;lat;lon;timestamp;P1;durP1;ratioP1;P2;durP2;ratioP2
15202;SDS011;7702;51.046;5.184;2024-02-26T00:01:39;1.00;;;0.90;;
15202;SDS011;7702;51.046;5.184;2024-02-26T00:04:04;1.50;;;1.10;;
15202;SDS011;7702;51.046;5.184;2024-02-26T00:06:30;1.10;;;1.10;;
15202;SDS011;7702;51.046;5.184;2024-02-26T00:08:56;1.63;;;1.37;;
15202;SDS011;7702;51.046;5.184;2024-02-26T00:11:22;3.33;;;1.10;;
15202;SDS011;7702;51.046;5.184;2024-02-26T00:13:47;2.50;;;1.23;;
15202;SDS011;7702;51.046;5.184;2024-02-26T00:16:13;1.43;;;1.17;;
15202;SDS011;7702;51.046;5.184;2024-02-26T00:18:39;2.90;;;1.10;;
15202;SDS011;7702;51.046;5.184;2024-02-26T00:21:05;1.43;;;0.93;;
15202;SDS011;7702;51.046;5.184;2024-02-26T00:23:31;1.70;;;1.00;;
15202;SDS011;7702;51.046;5.184;2024-02-26T00:25:56;1.37;;;1.07;;
15202;SDS011;7702;51.046;5.184;2024-02-26T00:28:22;0.73;;;0.73;;
15202;SDS011;7702;51.046;5.184;2024-02-26T00:30:49;1.30;;;0.97;;
15202;SDS011;7702;51.046;5.184;2024-02-26T00:33:16;3.37;;;1.10;;
15202;SDS011;7702;51.046;5.184;2024-02-26T00:35:42;1.33;;;1.23;;
15202;SDS011;7702;51.046;5.184;2024-02-26T00:38:08;1.50;;;1.40;;
15202;SDS011;7702;51.046;5.184;2024-02-26T00:40:33;1.80;;;1.50;;
15202;SDS011;7702;51.046;5.184;2024-02-26T00:42:59;1.77;;;1.60;;
15202;SDS011;7702;51.046;5.184;2024-02-26T00:45:25;1.57;;;1.33;;
15202;SDS011;7702;51.046;5.184;2024-02-26T00:47:50;2.17;;;1.40;;
15202;SDS011;7702;51.046;5.184;2024-02-26T00:50:16;1.80;;;1.70;;
15202;SDS011;7702;51.046;5.184;2024-02-26T00:52:42;3.90;;;1.60;;
15202;SDS011;7702;51.046;5.184;2024-02-26T00:55:07;3.10;;;1.50;;
15202;SDS011;7702;51.046;5.184;2024-02-26T00:57:33;1.43;;;1.33;;
15202;SDS011;7702;51.046;5.184;2024-02-26T01:00:00;2.30;;;1.60;;
15202;SDS011;7702;51.046;5.184;2024-02-26T01:02:26;3.83;;;1.80;;
15202;SDS011;7702;51.046;5.184;2024-02-26T01:04:52;2.63;;;1.70;;
15202;SDS011;7702;51.046;5.184;2024-02-26T01:07:17;2.30;;;1.60;;
15202;SDS011;7702;51.046;5.184;2024-02-26T01:09:44;3.13;;;2.30;;
15202;SDS011;7702;51.046;5.184;2024-02-26T01:12:09;2.70;;;1.87;;
15202;SDS011;7702;51.046;5.184;2024-02-26T01:14:35;2.07;;;1.57;;
15202;SDS011;7702;51.046;5.184;2024-02-26T01:17:02;2.03;;;1.83;;
15202;SDS011;7702;51.046;5.184;2024-02-26T01:19:28;2.33;;;2.13;;
15202;SDS011;7702;51.046;5.184;2024-02-26T01:21:54;3.70;;;1.90;;
15202;SDS011;7702;51.046;5.184;2024-02-26T01:24:19;1.70;;;1.60;;
15202;SDS011;7702;51.046;5.184;2024-02-26T01:26:45;2.00;;;1.73;;
15202;SDS011;7702;51.046;5.184;2024-02-26T01:29:10;2.70;;;1.97;;
15202;SDS011;7702;51.046;5.184;2024-02-26T01:31:36;1.90;;;1.80;;
15202;SDS011;7702;51.046;5.184;2024-02-26T01:34:02;2.27;;;1.97;;
15202;SDS011;7702;51.046;5.184;2024-02-26T01:36:27;2.03;;;1.87;;
15202;SDS011;7702;51.046;5.184;2024-02-26T01:38:54;3.03;;;1.80;;
15202;SDS011;7702;51.046;5.184;2024-02-26T01:41:19;1.97;;;1.77;;
15202;SDS011;7702;51.046;5.184;2024-02-26T01:43:45;3.77;;;2.37;;
15202;SDS011;7702;51.046;5.184;2024-02-26T01:46:12;2.50;;;1.70;;
15202;SDS011;7702;51.046;5.184;2024-02-26T01:48:43;2.53;;;1.90;;
15202;SDS011;7702;51.046;5.184;2024-02-26T01:51:12;3.07;;;2.40;;
15202;SDS011;7702;51.046;5.184;2024-02-26T01:53:39;1.67;;;1.47;;
15202;SDS011;7702;51.046;5.184;2024-02-26T01:56:05;1.90;;;1.70;;
15202;SDS011;7702;51.046;5.184;2024-02-26T01:58:32;2.70;;;1.57;;
15202;SDS011;7702;51.046;5.184;2024-02-26T02:01:00;1.50;;;1.40;;
15202;SDS011;7702;51.046;5.184;2024-02-26T02:03:26;1.73;;;1.40;;
15202;SDS011;7702;51.046;5.184;2024-02-26T02:05:53;2.70;;;1.90;;
15202;SDS011;7702;51.046;5.184;2024-02-26T02:08:19;1.70;;;1.60;;
15202;SDS011;7702;51.046;5.184;2024-02-26T02:10:45;3.93;;;1.93;;
15202;SDS011;7702;51.046;5.184;2024-02-26T02:13:13;2.00;;;1.70;;
15202;SDS011;7702;51.046;5.184;2024-02-26T02:15:39;2.03;;;1.67;;
15202;SDS011;7702;51.046;5.184;2024-02-26T02:18:05;2.77;;;1.60;;
15202;SDS011;7702;51.046;5.184;2024-02-26T02:20:32;3.10;;;1.80;;
15202;SDS011;7702;51.046;5.184;2024-02-26T02:22:59;2.40;;;2.20;;
15202;SDS011;7702;51.046;5.184;2024-02-26T02:25:24;2.23;;;2.07;;
15202;SDS011;7702;51.046;5.184;2024-02-26T02:27:50;2.40;;;2.17;;
15202;SDS011;7702;51.046;5.184;2024-02-26T02:30:18;2.53;;;2.33;;
15202;SDS011;7702;51.046;5.184;2024-02-26T02:32:45;2.93;;;2.30;;
15202;SDS011;7702;51.046;5.184;2024-02-26T02:35:11;2.20;;;2.00;;
15202;SDS011;7702;51.046;5.184;2024-02-26T02:37:37;4.80;;;2.40;;
15202;SDS011;7702;51.046;5.184;2024-02-26T02:40:02;3.90;;;2.13;;
15202;SDS011;7702;51.046;5.184;2024-02-26T02:42:29;2.47;;;2.27;;
15202;SDS011;7702;51.046;5.184;2024-02-26T02:44:54;2.60;;;2.40;;
15202;SDS011;7702;51.046;5.184;2024-02-26T02:47:20;3.07;;;2.77;;
15202;SDS011;7702;51.046;5.184;2024-02-26T02:49:46;3.53;;;2.63;;
15202;SDS011;7702;51.046;5.184;2024-02-26T02:52:11;3.13;;;2.53;;
15202;SDS011;7702;51.046;5.184;2024-02-26T02:54:37;3.07;;;2.80;;
15202;SDS011;7702;51.046;5.184;2024-02-26T02:57:05;3.67;;;2.13;;
15202;SDS011;7702;51.046;5.184;2024-02-26T02:59:31;2.93;;;2.67;;
15202;SDS011;7702;51.046;5.184;2024-02-26T03:01:57;2.63;;;2.33;;
15202;SDS011;7702;51.046;5.184;2024-02-26T03:04:23;4.10;;;2.50;;
15202;SDS011;7702;51.046;5.184;2024-02-26T03:06:48;3.60;;;2.70;;
15202;SDS011;7702;51.046;5.184;2024-02-26T03:09:14;2.60;;;2.40;;
15202;SDS011;7702;51.046;5.184;2024-02-26T03:11:39;2.83;;;2.63;;
15202;SDS011;7702;51.046;5.184;2024-02-26T03:14:05;2.60;;;2.40;;
15202;SDS011;7702;51.046;5.184;2024-02-26T03:16:31;2.60;;;2.40;;
15202;SDS011;7702;51.046;5.184;2024-02-26T03:18:57;2.20;;;2.10;;
15202;SDS011;7702;51.046;5.184;2024-02-26T03:21:23;3.60;;;2.50;;
15202;SDS011;7702;51.046;5.184;2024-02-26T03:23:50;3.27;;;2.97;;
15202;SDS011;7702;51.046;5.184;2024-02-26T03:26:16;2.67;;;2.43;;
15202;SDS011;7702;51.046;5.184;2024-02-26T03:28:41;3.00;;;2.70;;
15202;SDS011;7702;51.046;5.184;2024-02-26T03:31:07;2.63;;;2.43;;
15202;SDS011;7702;51.046;5.184;2024-02-26T03:33:33;4.30;;;2.80;;
15202;SDS011;7702;51.046;5.184;2024-02-26T03:36:00;4.57;;;2.50;;
15202;SDS011;7702;51.046;5.184;2024-02-26T03:38:26;3.27;;;2.97;;
15202;SDS011;7702;51.046;5.184;2024-02-26T03:40:52;4.60;;;3.20;;
15202;SDS011;7702;51.046;5.184;2024-02-26T03:43:17;3.47;;;3.17;;
15202;SDS011;7702;51.046;5.184;2024-02-26T03:45:43;4.00;;;3.50;;
15202;SDS011;7702;51.046;5.184;2024-02-26T03:48:08;4.73;;;4.23;;
15202;SDS011;7702;51.046;5.184;2024-02-26T03:50:34;4.33;;;3.10;;
15202;SDS011;7702;51.046;5.184;2024-02-26T03:53:00;3.63;;;2.80;;
15202;SDS011;7702;51.046;5.184;2024-02-26T03:55:25;3.27;;;2.97;;
15202;SDS011;7702;51.046;5.184;2024-02-26T03:57:51;3.40;;;3.10;;
15202;SDS011;7702;51.046;5.184;2024-02-26T04:00:17;4.73;;;2.47;;
15202;SDS011;7702;51.046;5.184;2024-02-26T04:02:43;3.80;;;3.50;;
15202;SDS011;7702;51.046;5.184;2024-02-26T04:05:10;2.77;;;2.57;;
15202;SDS011;7702;51.046;5.184;2024-02-26T04:07:36;3.10;;;2.80;;
15202;SDS011;7702;51.046;5.184;2024-02-26T04:10:02;3.33;;;2.90;;
15202;SDS011;7702;51.046;5.184;2024-02-26T04:12:30;3.67;;;3.03;;
15202;SDS011;7702;51.046;5.184;2024-02-26T04:14:56;3.77;;;3.10;;
15202;SDS011;7702;51.046;5.184;2024-02-26T04:17:22;3.67;;;2.60;;
15202;SDS011;7702;51.046;5.184;2024-02-26T04:19:48;3.27;;;2.97;;
15202;SDS011;7702;51.046;5.184;2024-02-26T04:22:14;3.60;;;3.13;;
15202;SDS011;7702;51.046;5.184;2024-02-26T04:24:39;3.23;;;2.93;;
15202;SDS011;7702;51.046;5.184;2024-02-26T04:27:05;3.20;;;2.90;;
15202;SDS011;7702;51.046;5.184;2024-02-26T04:29:31;4.10;;;3.70;;
15202;SDS011;7702;51.046;5.184;2024-02-26T04:31:56;4.67;;;4.17;;
15202;SDS011;7702;51.046;5.184;2024-02-26T04:34:22;5.23;;;4.73;;
15202;SDS011;7702;51.046;5.184;2024-02-26T04:36:48;6.37;;;5.07;;
15202;SDS011;7702;51.046;5.184;2024-02-26T04:39:13;5.40;;;4.90;;
15202;SDS011;7702;51.046;5.184;2024-02-26T04:41:39;5.37;;;4.87;;
15202;SDS011;7702;51.046;5.184;2024-02-26T04:44:05;6.27;;;4.67;;
15202;SDS011;7702;51.046;5.184;2024-02-26T04:46:30;5.20;;;4.70;;
15202;SDS011;7702;51.046;5.184;2024-02-26T04:48:56;5.13;;;4.73;;
15202;SDS011;7702;51.046;5.184;2024-02-26T04:51:22;6.27;;;5.07;;
15202;SDS011;7702;51.046;5.184;2024-02-26T04:53:47;5.70;;;4.90;;
15202;SDS011;7702;51.046;5.184;2024-02-26T04:56:13;5.37;;;4.87;;
15202;SDS011;7702;51.046;5.184;2024-02-26T04:58:39;9.70;;;5.97;;
15202;SDS011;7702;51.046;5.184;2024-02-26T05:01:05;7.67;;;5.80;;
15202;SDS011;7702;51.046;5.184;2024-02-26T05:03:31;8.33;;;5.80;;
15202;SDS011;7702;51.046;5.184;2024-02-26T05:05:56;5.53;;;5.03;;
15202;SDS011;7702;51.046;5.184;2024-02-26T05:08:23;6.10;;;5.50;;
15202;SDS011;7702;51.046;5.184;2024-02-26T05:10:48;7.10;;;6.10;;
15202;SDS011;7702;51.046;5.184;2024-02-26T05:13:14;7.27;;;6.53;;
15202;SDS011;7702;51.046;5.184;2024-02-26T05:15:42;6.53;;;5.93;;
15202;SDS011;7702;51.046;5.184;2024-02-26T05:18:08;7.43;;;6.13;;
15202;SDS011;7702;51.046;5.184;2024-02-26T05:20:34;8.30;;;6.77;;
15202;SDS011;7702;51.046;5.184;2024-02-26T05:23:03;7.50;;;6.10;;
15202;SDS011;7702;51.046;5.184;2024-02-26T05:25:29;7.67;;;6.93;;
15202;SDS011;7702;51.046;5.184;2024-02-26T05:27:55;8.17;;;7.37;;
15202;SDS011;7702;51.046;5.184;2024-02-26T05:30:21;8.20;;;7.40;;
15202;SDS011;7702;51.046;5.184;2024-02-26T05:32:46;9.13;;;7.40;;
15202;SDS011;7702;51.046;5.184;2024-02-26T05:35:12;9.43;;;8.17;;
15202;SDS011;7702;51.046;5.184;2024-02-26T05:37:38;9.13;;;8.23;;
15202;SDS011;7702;51.046;5.184;2024-02-26T05:40:04;9.40;;;8.40;;
15202;SDS011;7702;51.046;5.184;2024-02-26T05:42:31;8.67;;;7.77;;
15202;SDS011;7702;51.046;5.184;2024-02-26T05:44:56;9.83;;;7.70;;
15202;SDS011;7702;51.046;5.184;2024-02-26T05:47:22;10.33;;;8.17;;
15202;SDS011;7702;51.046;5.184;2024-02-26T05:49:48;8.67;;;7.77;;
15202;SDS011;7702;51.046;5.184;2024-02-26T05:52:14;9.17;;;8.33;;
15202;SDS011;7702;51.046;5.184;2024-02-26T05:54:39;8.90;;;7.90;;
15202;SDS011;7702;51.046;5.184;2024-02-26T05:57:05;8.93;;;8.13;;
15202;SDS011;7702;51.046;5.184;2024-02-26T05:59:31;9.37;;;8.47;;
15202;SDS011;7702;51.046;5.184;2024-02-26T06:01:56;9.10;;;8.23;;
15202;SDS011;7702;51.046;5.184;2024-02-26T06:04:22;10.27;;;9.33;;
15202;SDS011;7702;51.046;5.184;2024-02-26T06:06:47;9.23;;;8.43;;
15202;SDS011;7702;51.046;5.184;2024-02-26T06:09:14;9.80;;;8.90;;
15202;SDS011;7702;51.046;5.184;2024-02-26T06:11:40;9.87;;;8.97;;
15202;SDS011;7702;51.046;5.184;2024-02-26T06:14:05;10.07;;;9.03;;
15202;SDS011;7702;51.046;5.184;2024-02-26T06:16:31;10.13;;;9.27;;
15202;SDS011;7702;51.046;5.184;2024-02-26T06:18:58;11.63;;;9.50;;
15202;SDS011;7702;51.046;5.184;2024-02-26T06:21:25;10.17;;;9.33;;
15202;SDS011;7702;51.046;5.184;2024-02-26T06:23:51;10.20;;;9.30;;
15202;SDS011;7702;51.046;5.184;2024-02-26T06:26:16;10.30;;;9.30;;
15202;SDS011;7702;51.046;5.184;2024-02-26T06:28:42;10.40;;;9.33;;
15202;SDS011;7702;51.046;5.184;2024-02-26T06:31:08;9.30;;;8.30;;
15202;SDS011;7702;51.046;5.184;2024-02-26T06:33:33;9.87;;;9.07;;
15202;SDS011;7702;51.046;5.184;2024-02-26T06:36:00;10.87;;;9.77;;
15202;SDS011;7702;51.046;5.184;2024-02-26T06:38:26;9.23;;;8.40;;
15202;SDS011;7702;51.046;5.184;2024-02-26T06:40:51;10.10;;;9.13;;
15202;SDS011;7702;51.046;5.184;2024-02-26T06:43:17;10.87;;;9.97;;
15202;SDS011;7702;51.046;5.184;2024-02-26T06:45:43;10.40;;;9.50;;
15202;SDS011;7702;51.046;5.184;2024-02-26T06:48:09;10.67;;;9.67;;
15202;SDS011;7702;51.046;5.184;2024-02-26T06:50:34;10.57;;;9.63;;
15202;SDS011;7702;51.046;5.184;2024-02-26T06:53:00;10.83;;;9.83;;
15202;SDS011;7702;51.046;5.184;2024-02-26T06:55:26;11.97;;;10.73;;
15202;SDS011;7702;51.046;5.184;2024-02-26T06:57:51;10.23;;;9.23;;
15202;SDS011;7702;51.046;5.184;2024-02-26T07:00:18;11.53;;;10.43;;
15202;SDS011;7702;51.046;5.184;2024-02-26T07:02:43;10.47;;;9.43;;
15202;SDS011;7702;51.046;5.184;2024-02-26T07:05:09;10.70;;;9.70;;
15202;SDS011;7702;51.046;5.184;2024-02-26T07:07:35;11.13;;;10.00;;
15202;SDS011;7702;51.046;5.184;2024-02-26T07:10:01;11.10;;;10.10;;
15202;SDS011;7702;51.046;5.184;2024-02-26T07:12:29;10.17;;;9.27;;
15202;SDS011;7702;51.046;5.184;2024-02-26T07:14:55;11.80;;;10.70;;
15202;SDS011;7702;51.046;5.184;2024-02-26T07:17:21;11.47;;;10.37;;
15202;SDS011;7702;51.046;5.184;2024-02-26T07:19:47;12.63;;;11.43;;
15202;SDS011;7702;51.046;5.184;2024-02-26T07:22:12;11.83;;;10.73;;
15202;SDS011;7702;51.046;5.184;2024-02-26T07:24:38;11.80;;;10.70;;
15202;SDS011;7702;51.046;5.184;2024-02-26T07:27:04;11.07;;;9.97;;
15202;SDS011;7702;51.046;5.184;2024-02-26T07:29:30;12.37;;;10.63;;
15202;SDS011;7702;51.046;5.184;2024-02-26T07:31:56;12.33;;;10.27;;
15202;SDS011;7702;51.046;5.184;2024-02-26T07:34:23;10.87;;;9.93;;
15202;SDS011;7702;51.046;5.184;2024-02-26T07:36:52;11.87;;;10.63;;
15202;SDS011;7702;51.046;5.184;2024-02-26T07:39:19;10.97;;;9.97;;
15202;SDS011;7702;51.046;5.184;2024-02-26T07:41:45;11.30;;;10.30;;
15202;SDS011;7702;51.046;5.184;2024-02-26T07:44:14;10.90;;;9.80;;
15202;SDS011;7702;51.046;5.184;2024-02-26T07:46:40;11.23;;;10.03;;
15202;SDS011;7702;51.046;5.184;2024-02-26T07:49:06;10.83;;;9.83;;
15202;SDS011;7702;51.046;5.184;2024-02-26T07:51:32;10.50;;;9.57;;
15202;SDS011;7702;51.046;5.184;2024-02-26T07:53:58;10.33;;;9.33;;
15202;SDS011;7702;51.046;5.184;2024-02-26T07:56:23;10.67;;;9.57;;
15202;SDS011;7702;51.046;5.184;2024-02-26T07:58:49;10.57;;;9.47;;
15202;SDS011;7702;51.046;5.184;2024-02-26T08:01:15;10.60;;;9.70;;
15202;SDS011;7702;51.046;5.184;2024-02-26T08:03:40;10.43;;;9.53;;
15202;SDS011;7702;51.046;5.184;2024-02-26T08:06:08;10.83;;;9.73;;
15202;SDS011;7702;51.046;5.184;2024-02-26T08:08:34;12.00;;;10.80;;
15202;SDS011;7702;51.046;5.184;2024-02-26T08:10:59;11.53;;;10.33;;
15202;SDS011;7702;51.046;5.184;2024-02-26T08:13:25;11.80;;;10.77;;
15202;SDS011;7702;51.046;5.184;2024-02-26T08:15:51;11.77;;;10.63;;
15202;SDS011;7702;51.046;5.184;2024-02-26T08:18:17;11.67;;;10.60;;
15202;SDS011;7702;51.046;5.184;2024-02-26T08:20:43;11.53;;;10.53;;
15202;SDS011;7702;51.046;5.184;2024-02-26T08:23:09;11.80;;;10.70;;
15202;SDS011;7702;51.046;5.184;2024-02-26T08:25:35;12.10;;;10.93;;
15202;SDS011;7702;51.046;5.184;2024-02-26T08:28:01;12.27;;;11.17;;
15202;SDS011;7702;51.046;5.184;2024-02-26T08:30:26;12.40;;;11.30;;
15202;SDS011;7702;51.046;5.184;2024-02-26T08:32:52;12.50;;;11.33;;
15202;SDS011;7702;51.046;5.184;2024-02-26T08:35:18;12.27;;;11.17;;
15202;SDS011;7702;51.046;5.184;2024-02-26T08:37:44;13.03;;;11.80;;
15202;SDS011;7702;51.046;5.184;2024-02-26T08:40:11;11.87;;;10.73;;
15202;SDS011;7702;51.046;5.184;2024-02-26T08:42:37;11.50;;;10.47;;
15202;SDS011;7702;51.046;5.184;2024-02-26T08:45:03;11.97;;;10.73;;
15202;SDS011;7702;51.046;5.184;2024-02-26T08:47:28;11.80;;;10.73;;
15202;SDS011;7702;51.046;5.184;2024-02-26T08:49:54;10.67;;;9.60;;
15202;SDS011;7702;51.046;5.184;2024-02-26T08:52:20;11.83;;;10.63;;
15202;SDS011;7702;51.046;5.184;2024-02-26T08:54:46;11.17;;;9.87;;
15202;SDS011;7702;51.046;5.184;2024-02-26T08:57:12;11.00;;;10.00;;
15202;SDS011;7702;51.046;5.184;2024-02-26T08:59:38;10.57;;;9.43;;
15202;SDS011;7702;51.046;5.184;2024-02-26T09:02:04;9.50;;;8.70;;
15202;SDS011;7702;51.046;5.184;2024-02-26T09:04:30;10.80;;;9.70;;
15202;SDS011;7702;51.046;5.184;2024-02-26T09:06:56;9.80;;;8.90;;
15202;SDS011;7702;51.046;5.184;2024-02-26T09:09:21;9.13;;;8.23;;
15202;SDS011;7702;51.046;5.184;2024-02-26T09:11:47;8.53;;;7.73;;
15202;SDS011;7702;51.046;5.184;2024-02-26T09:14:16;8.57;;;7.87;;
15202;SDS011;7702;51.046;5.184;2024-02-26T09:16:42;8.53;;;7.70;;
15202;SDS011;7702;51.046;5.184;2024-02-26T09:19:08;8.13;;;7.37;;
15202;SDS011;7702;51.046;5.184;2024-02-26T09:21:33;7.97;;;7.23;;
15202;SDS011;7702;51.046;5.184;2024-02-26T09:23:59;8.27;;;7.20;;
15202;SDS011;7702;51.046;5.184;2024-02-26T09:26:25;7.73;;;6.93;;
15202;SDS011;7702;51.046;5.184;2024-02-26T09:28:51;7.50;;;6.87;;
15202;SDS011;7702;51.046;5.184;2024-02-26T09:31:17;7.40;;;6.80;;
15202;SDS011;7702;51.046;5.184;2024-02-26T09:33:43;8.40;;;7.60;;
15202;SDS011;7702;51.046;5.184;2024-02-26T09:36:12;8.60;;;7.90;;
15202;SDS011;7702;51.046;5.184;2024-02-26T09:38:39;10.17;;;8.77;;
15202;SDS011;7702;51.046;5.184;2024-02-26T09:41:05;9.70;;;8.80;;
15202;SDS011;7702;51.046;5.184;2024-02-26T09:43:36;10.23;;;9.33;;
15202;SDS011;7702;51.046;5.184;2024-02-26T09:46:07;9.37;;;8.47;;
15202;SDS011;7702;51.046;5.184;2024-02-26T09:48:33;10.20;;;9.30;;
15202;SDS011;7702;51.046;5.184;2024-02-26T09:51:01;9.37;;;8.50;;
15202;SDS011;7702;51.046;5.184;2024-02-26T09:53:27;10.43;;;9.53;;
15202;SDS011;7702;51.046;5.184;2024-02-26T09:55:56;9.43;;;8.60;;
15202;SDS011;7702;51.046;5.184;2024-02-26T09:58:22;10.30;;;9.40;;
15202;SDS011;7702;51.046;5.184;2024-02-26T10:00:51;9.87;;;9.03;;
15202;SDS011;7702;51.046;5.184;2024-02-26T10:03:25;10.50;;;9.50;;
15202;SDS011;7702;51.046;5.184;2024-02-26T10:05:56;10.27;;;9.27;;
15202;SDS011;7702;51.046;5.184;2024-02-26T10:08:23;9.87;;;8.97;;
15202;SDS011;7702;51.046;5.184;2024-02-26T10:10:50;9.77;;;8.87;;
15202;SDS011;7702;51.046;5.184;2024-02-26T10:13:15;10.13;;;9.17;;
15202;SDS011;7702;51.046;5.184;2024-02-26T10:15:41;9.10;;;8.30;;
15202;SDS011;7702;51.046;5.184;2024-02-26T10:18:07;9.47;;;8.67;;
15202;SDS011;7702;51.046;5.184;2024-02-26T10:20:33;9.43;;;8.63;;
15202;SDS011;7702;51.046;5.184;2024-02-26T10:23:02;8.80;;;8.00;;
15202;SDS011;7702;51.046;5.184;2024-02-26T10:25:28;8.47;;;7.73;;
15202;SDS011;7702;51.046;5.184;2024-02-26T10:27:56;8.73;;;7.40;;
15202;SDS011;7702;51.046;5.184;2024-02-26T10:30:27;7.57;;;6.97;;
15202;SDS011;7702;51.046;5.184;2024-02-26T10:32:53;8.00;;;7.30;;
15202;SDS011;7702;51.046;5.184;2024-02-26T10:35:19;7.73;;;6.80;;
15202;SDS011;7702;51.046;5.184;2024-02-26T10:37:46;6.97;;;6.37;;
15202;SDS011;7702;51.046;5.184;2024-02-26T10:40:12;6.43;;;5.83;;
15202;SDS011;7702;51.046;5.184;2024-02-26T10:42:39;6.57;;;5.97;;
15202;SDS011;7702;51.046;5.184;2024-02-26T10:45:06;7.67;;;6.97;;
15202;SDS011;7702;51.046;5.184;2024-02-26T10:47:34;6.77;;;6.27;;
15202;SDS011;7702;51.046;5.184;2024-02-26T10:50:04;7.33;;;6.63;;
15202;SDS011;7702;51.046;5.184;2024-02-26T10:52:35;7.43;;;6.83;;
15202;SDS011;7702;51.046;5.184;2024-02-26T10:55:02;6.43;;;5.93;;
15202;SDS011;7702;51.046;5.184;2024-02-26T10:57:39;7.73;;;7.03;;
15202;SDS011;7702;51.046;5.184;2024-02-26T11:00:07;6.67;;;6.07;;
15202;SDS011;7702;51.046;5.184;2024-02-26T11:02:37;6.20;;;5.50;;
15202;SDS011;7702;51.046;5.184;2024-02-26T11:05:05;6.43;;;5.60;;
15202;SDS011;7702;51.046;5.184;2024-02-26T11:07:34;6.40;;;5.80;;
15202;SDS011;7702;51.046;5.184;2024-02-26T11:10:02;6.87;;;6.17;;
15202;SDS011;7702;51.046;5.184;2024-02-26T11:12:29;6.63;;;6.03;;
15202;SDS011;7702;51.046;5.184;2024-02-26T11:14:56;6.03;;;5.47;;
15202;SDS011;7702;51.046;5.184;2024-02-26T11:17:25;6.37;;;5.87;;
15202;SDS011;7702;51.046;5.184;2024-02-26T11:19:55;6.70;;;6.07;;
15202;SDS011;7702;51.046;5.184;2024-02-26T11:22:22;6.37;;;5.77;;
15202;SDS011;7702;51.046;5.184;2024-02-26T11:24:51;6.70;;;6.10;;
15202;SDS011;7702;51.046;5.184;2024-02-26T11:27:18;6.80;;;6.10;;
15202;SDS011;7702;51.046;5.184;2024-02-26T11:29:51;6.57;;;5.87;;
15202;SDS011;7702;51.046;5.184;2024-02-26T11:32:19;5.97;;;5.47;;
15202;SDS011;7702;51.046;5.184;2024-02-26T11:34:45;5.57;;;5.17;;
15202;SDS011;7702;51.046;5.184;2024-02-26T11:37:12;6.03;;;5.50;;
15202;SDS011;7702;51.046;5.184;2024-02-26T11:39:39;6.57;;;6.03;;
15202;SDS011;7702;51.046;5.184;2024-02-26T11:42:06;5.80;;;5.33;;
15202;SDS011;7702;51.046;5.184;2024-02-26T11:44:33;5.83;;;5.43;;
15202;SDS011;7702;51.046;5.184;2024-02-26T11:47:10;5.90;;;5.47;;
15202;SDS011;7702;51.046;5.184;2024-02-26T11:49:37;6.40;;;5.90;;
15202;SDS011;7702;51.046;5.184;2024-02-26T11:52:05;6.20;;;5.70;;
15202;SDS011;7702;51.046;5.184;2024-02-26T11:54:51;6.20;;;5.60;;
15202;SDS011;7702;51.046;5.184;2024-02-26T11:59:54;6.60;;;6.00;;
15202;SDS011;7702;51.046;5.184;2024-02-26T12:05:12;7.10;;;6.40;;
15202;SDS011;7702;51.046;5.184;2024-02-26T12:07:43;6.63;;;6.07;;
15202;SDS011;7702;51.046;5.184;2024-02-26T12:10:24;6.60;;;6.10;;
15202;SDS011;7702;51.046;5.184;2024-02-26T12:12:58;6.17;;;5.67;;
15202;SDS011;7702;51.046;5.184;2024-02-26T12:15:42;7.37;;;6.67;;
15202;SDS011;7702;51.046;5.184;2024-02-26T12:18:09;6.83;;;6.27;;
15202;SDS011;7702;51.046;5.184;2024-02-26T12:20:36;6.73;;;6.23;;
15202;SDS011;7702;51.046;5.184;2024-02-26T12:23:02;7.20;;;6.60;;
15202;SDS011;7702;51.046;5.184;2024-02-26T12:25:32;6.97;;;6.37;;
15202;SDS011;7702;51.046;5.184;2024-02-26T12:27:58;7.13;;;6.53;;
15202;SDS011;7702;51.046;5.184;2024-02-26T12:30:25;7.40;;;6.70;;
15202;SDS011;7702;51.046;5.184;2024-02-26T12:32:51;7.80;;;7.20;;
15202;SDS011;7702;51.046;5.184;2024-02-26T12:35:22;7.20;;;6.63;;
15202;SDS011;7702;51.046;5.184;2024-02-26T12:37:48;8.40;;;7.60;;
15202;SDS011;7702;51.046;5.184;2024-02-26T12:40:16;8.67;;;7.97;;
15202;SDS011;7702;51.046;5.184;2024-02-26T12:42:43;8.30;;;7.53;;
15202;SDS011;7702;51.046;5.184;2024-02-26T12:45:10;8.30;;;7.63;;
15202;SDS011;7702;51.046;5.184;2024-02-26T12:47:40;9.47;;;8.30;;
15202;SDS011;7702;51.046;5.184;2024-02-26T12:50:07;9.67;;;8.47;;
15202;SDS011;7702;51.046;5.184;2024-02-26T12:52:35;8.23;;;7.53;;
15202;SDS011;7702;51.046;5.184;2024-02-26T12:55:02;9.27;;;8.47;;
15202;SDS011;7702;51.046;5.184;2024-02-26T12:57:29;9.40;;;8.60;;
15202;SDS011;7702;51.046;5.184;2024-02-26T12:59:59;9.47;;;8.57;;
15202;SDS011;7702;51.046;5.184;2024-02-26T13:02:26;9.37;;;8.57;;
15202;SDS011;7702;51.046;5.184;2024-02-26T13:04:53;9.53;;;8.67;;
15202;SDS011;7702;51.046;5.184;2024-02-26T13:07:20;9.33;;;8.43;;
15202;SDS011;7702;51.046;5.184;2024-02-26T13:09:46;8.80;;;7.93;;
15202;SDS011;7702;51.046;5.184;2024-02-26T13:12:12;9.17;;;8.37;;
15202;SDS011;7702;51.046;5.184;2024-02-26T13:14:39;10.10;;;9.20;;
15202;SDS011;7702;51.046;5.184;2024-02-26T13:17:04;10.60;;;9.60;;
15202;SDS011;7702;51.046;5.184;2024-02-26T13:19:30;9.53;;;8.63;;
15202;SDS011;7702;51.046;5.184;2024-02-26T13:21:56;9.97;;;9.07;;
15202;SDS011;7702;51.046;5.184;2024-02-26T13:24:28;10.63;;;9.63;;
15202;SDS011;7702;51.046;5.184;2024-02-26T13:26:56;10.80;;;9.70;;
15202;SDS011;7702;51.046;5.184;2024-02-26T13:29:22;11.60;;;10.30;;
15202;SDS011;7702;51.046;5.184;2024-02-26T13:31:53;12.43;;;11.13;;
15202;SDS011;7702;51.046;5.184;2024-02-26T13:34:28;12.63;;;10.43;;
15202;SDS011;7702;51.046;5.184;2024-02-26T13:36:56;11.80;;;10.60;;
15202;SDS011;7702;51.046;5.184;2024-02-26T13:39:22;11.10;;;10.00;;
15202;SDS011;7702;51.046;5.184;2024-02-26T13:41:49;11.27;;;10.20;;
15202;SDS011;7702;51.046;5.184;2024-02-26T13:44:15;12.10;;;10.70;;
15202;SDS011;7702;51.046;5.184;2024-02-26T13:46:40;10.93;;;9.77;;
15202;SDS011;7702;51.046;5.184;2024-02-26T13:49:07;11.87;;;10.20;;
15202;SDS011;7702;51.046;5.184;2024-02-26T13:51:34;10.93;;;9.80;;
15202;SDS011;7702;51.046;5.184;2024-02-26T13:54:00;11.83;;;10.30;;
15202;SDS011;7702;51.046;5.184;2024-02-26T13:56:27;12.17;;;10.63;;
15202;SDS011;7702;51.046;5.184;2024-02-26T13:58:52;11.40;;;10.23;;
15202;SDS011;7702;51.046;5.184;2024-02-26T14:01:18;10.97;;;9.77;;
15202;SDS011;7702;51.046;5.184;2024-02-26T14:03:44;14.43;;;11.00;;
15202;SDS011;7702;51.046;5.184;2024-02-26T14:06:10;12.03;;;10.83;;
15202;SDS011;7702;51.046;5.184;2024-02-26T14:08:35;10.73;;;9.63;;
15202;SDS011;7702;51.046;5.184;2024-02-26T14:11:01;9.83;;;8.83;;
15202;SDS011;7702;51.046;5.184;2024-02-26T14:13:27;12.50;;;11.30;;
15202;SDS011;7702;51.046;5.184;2024-02-26T14:15:52;12.17;;;10.87;;
15202;SDS011;7702;51.046;5.184;2024-02-26T14:18:18;11.90;;;10.47;;
15202;SDS011;7702;51.046;5.184;2024-02-26T14:20:44;11.03;;;9.93;;
15202;SDS011;7702;51.046;5.184;2024-02-26T14:23:10;10.60;;;9.37;;
15202;SDS011;7702;51.046;5.184;2024-02-26T14:25:36;9.60;;;8.63;;
15202;SDS011;7702;51.046;5.184;2024-02-26T14:28:02;9.63;;;8.73;;
15202;SDS011;7702;51.046;5.184;2024-02-26T14:30:28;9.13;;;8.23;;
15202;SDS011;7702;51.046;5.184;2024-02-26T14:32:54;8.77;;;7.50;;
15202;SDS011;7702;51.046;5.184;2024-02-26T14:35:20;7.93;;;7.17;;
15202;SDS011;7702;51.046;5.184;2024-02-26T14:37:46;8.30;;;7.03;;
15202;SDS011;7702;51.046;5.184;2024-02-26T14:40:13;7.67;;;6.97;;
15202;SDS011;7702;51.046;5.184;2024-02-26T14:42:40;8.50;;;7.60;;
15202;SDS011;7702;51.046;5.184;2024-02-26T14:45:06;10.30;;;7.70;;
15202;SDS011;7702;51.046;5.184;2024-02-26T14:47:34;9.70;;;8.10;;
15202;SDS011;7702;51.046;5.184;2024-02-26T14:50:00;9.13;;;8.20;;
15202;SDS011;7702;51.046;5.184;2024-02-26T14:52:26;11.70;;;8.97;;
15202;SDS011;7702;51.046;5.184;2024-02-26T14:54:52;9.30;;;8.20;;
15202;SDS011;7702;51.046;5.184;2024-02-26T14:57:18;11.13;;;8.43;;